Terminal Aerodrome Forecast
Issued by NWS

Home | Current Version | Previous Version | Text Only | Print | Product List | Glossary On
Versions: 1 2 3 4 5 6 7 8 9 10 11 12 13 14 15
752
FTUS43 KDLH 181128
TAFHYR
TAF
KHYR 181128Z 1812/1912 18007KT P6SM FEW250
     FM181500 19012G18KT P6SM FEW250
     FM181900 23016G22KT P6SM SCT250
     FM182200 26012KT P6SM FEW250
     FM190100 27009KT P6SM FEW250=

USA.gov is the U.S. government's official web portal to all federal, state and local government web resources and services.